Chipman Lake, Vermont
Current Conditions -  °F | °C
As of 7:35 AM on Thursday 23 Oct 2014 (Local Time) from KRUT Reporting Station
Overcast Overcast  
Wind Chill: 35°   Ceiling: 700
Heat Index: 41°   Visibility: 10mi
Dew Point: 39°   Wind: 9mph
Humidity: 93%   Direction: 330°NNW
Pressure: 29.87"   Gusts: NA
Location:  43.3492°N, 72.9643°W
Report Text: KRUT 231135Z 33008KT 10SM BKN007 OVC018 05/04 A2987 RMK AO1
Loading
Personal Weather Stations






























Interactive Weather Map
Tropical Storm Tracking
New forecast layout! Learn more

10-Day Weather Forecast

Advertisements
Track Severe Weather on mobile